createdAt,value
2019-04-21T00:01:30.664Z,9.87
2019-04-21T00:04:15.663Z,9.43
2019-04-21T00:06:48.053Z,9.60
2019-04-21T00:09:24.273Z,9.30
2019-04-21T00:11:49.637Z,10.00
2019-04-21T00:14:14.141Z,9.97
2019-04-21T00:16:40.957Z,9.07
2019-04-21T00:19:09.072Z,9.27
2019-04-21T00:21:38.570Z,9.13
2019-04-21T00:24:25.105Z,9.27
2019-04-21T00:27:14.200Z,9.73
2019-04-21T00:29:33.988Z,9.37
2019-04-21T00:31:58.840Z,9.47
2019-04-21T00:34:15.191Z,9.47
2019-04-21T00:36:57.346Z,9.27
2019-04-21T00:39:45.046Z,9.77
2019-04-21T00:42:03.891Z,9.53
2019-04-21T00:44:24.560Z,9.40
2019-04-21T00:47:00.691Z,9.80
2019-04-21T00:49:31.129Z,9.40
2019-04-21T00:52:26.399Z,9.53
2019-04-21T00:55:18.774Z,8.87
2019-04-21T00:57:38.905Z,9.10
2019-04-21T01:00:08.855Z,9.20
2019-04-21T01:02:43.127Z,9.37
2019-04-21T01:05:08.721Z,8.83
2019-04-21T01:07:37.110Z,8.77
2019-04-21T01:09:58.966Z,9.10
2019-04-21T01:12:37.947Z,9.27
2019-04-21T01:15:12.573Z,9.40
2019-04-21T01:17:38.541Z,9.60
2019-04-21T01:19:58.436Z,8.93
2019-04-21T01:22:13.289Z,9.87
2019-04-21T01:24:45.260Z,9.90
2019-04-21T01:27:22.676Z,9.67
2019-04-21T01:30:02.983Z,9.93
2019-04-21T01:32:37.414Z,9.87
2019-04-21T01:35:02.647Z,9.37
2019-04-21T01:37:41.704Z,10.00
2019-04-21T01:40:14.349Z,9.90
2019-04-21T01:42:33.536Z,10.20
2019-04-21T01:45:02.340Z,10.13
2019-04-21T01:47:25.211Z,9.97
2019-04-21T01:49:52.774Z,10.40
2019-04-21T01:52:38.655Z,10.20
2019-04-21T01:55:15.409Z,10.43
2019-04-21T01:57:52.712Z,10.90
2019-04-21T02:00:13.408Z,10.70
2019-04-21T02:02:59.380Z,9.87
2019-04-21T02:05:31.076Z,10.13
2019-04-21T02:07:49.146Z,9.13
2019-04-21T02:10:35.327Z,10.53
2019-04-21T02:12:56.526Z,10.43
2019-04-21T02:15:32.575Z,10.50
2019-04-21T02:17:59.239Z,10.17
2019-04-21T02:20:17.905Z,10.40
2019-04-21T02:23:10.029Z,10.80
2019-04-21T02:25:31.709Z,10.10
2019-04-21T02:28:05.590Z,11.03
2019-04-21T02:31:02.981Z,11.03
2019-04-21T02:33:16.829Z,11.47
2019-04-21T02:35:50.859Z,11.20
2019-04-21T02:38:09.175Z,11.27
2019-04-21T02:40:47.948Z,11.33
2019-04-21T02:43:11.419Z,12.73
2019-04-21T02:45:38.208Z,11.73
2019-04-21T02:48:15.124Z,11.80
2019-04-21T02:50:36.209Z,11.77
2019-04-21T02:53:16.107Z,12.27
2019-04-21T02:55:42.322Z,12.13
2019-04-21T02:58:17.880Z,11.90
2019-04-21T03:01:09.277Z,11.37
2019-04-21T03:06:27.150Z,11.53
2019-04-21T03:08:44.281Z,11.20
2019-04-21T03:11:10.980Z,11.77
2019-04-21T03:13:42.938Z,11.67
2019-04-21T03:16:21.393Z,12.20
2019-04-21T03:18:45.940Z,12.40
2019-04-21T03:21:07.436Z,12.83
2019-04-21T03:26:20.703Z,11.90
2019-04-21T03:28:37.049Z,11.87
2019-04-21T03:38:47.314Z,12.37
2019-04-21T03:43:43.889Z,12.30
2019-04-21T03:46:05.909Z,12.47
2019-04-21T03:48:52.584Z,12.50
2019-04-21T03:51:12.128Z,12.30
2019-04-21T04:13:58.129Z,12.10
2019-04-21T04:16:20.097Z,12.80
2019-04-21T04:19:01.661Z,12.47
2019-04-21T04:21:30.282Z,11.90
2019-04-21T04:28:58.677Z,12.33
2019-04-21T04:31:25.820Z,13.00
2019-04-21T04:39:14.164Z,11.97
2019-04-21T04:41:34.967Z,12.00
2019-04-21T04:44:03.138Z,12.40
2019-04-21T04:46:29.354Z,12.00
2019-04-21T04:49:08.049Z,12.23
2019-04-21T04:51:36.485Z,11.20
2019-04-21T04:53:56.188Z,11.93
2019-04-21T04:56:38.366Z,11.37
2019-04-21T05:01:34.892Z,11.90
2019-04-21T05:06:42.395Z,11.27
2019-04-21T05:09:07.831Z,10.27
2019-04-21T05:19:10.082Z,11.20
2019-04-21T05:21:34.706Z,11.03
2019-04-21T05:23:48.401Z,10.57
2019-04-21T05:26:13.565Z,9.90
2019-04-21T05:28:40.876Z,10.90
2019-04-21T05:31:36.754Z,10.33
2019-04-21T05:34:10.739Z,10.37
2019-04-21T05:36:45.907Z,10.40
2019-04-21T05:39:19.971Z,10.03
2019-04-21T05:41:44.799Z,10.43
2019-04-21T05:44:29.179Z,10.33
2019-04-21T05:47:07.917Z,10.70
2019-04-21T05:49:27.998Z,10.27
2019-04-21T05:51:58.450Z,10.10
2019-04-21T05:57:00.079Z,10.73
2019-04-21T05:59:32.409Z,10.37
2019-04-21T06:02:14.683Z,10.57
2019-04-21T06:05:01.941Z,10.27
2019-04-21T06:07:13.934Z,10.47
2019-04-21T06:09:48.889Z,10.10
2019-04-21T06:12:10.026Z,9.93
2019-04-21T06:14:45.083Z,10.20
2019-04-21T06:17:10.999Z,10.13
2019-04-21T06:19:45.078Z,10.10
2019-04-21T06:22:10.476Z,10.23
2019-04-21T06:24:43.813Z,11.33
2019-04-21T06:27:08.208Z,10.23
2019-04-21T06:29:38.457Z,9.70
2019-04-21T06:34:53.493Z,10.60
2019-04-21T06:37:21.684Z,9.63
2019-04-21T06:39:56.300Z,10.50
2019-04-21T06:42:09.109Z,9.50
2019-04-21T06:44:41.018Z,9.93
2019-04-21T06:47:17.927Z,10.10
2019-04-21T06:49:36.877Z,10.37
2019-04-21T06:52:19.385Z,9.40
2019-04-21T06:54:42.242Z,9.93
2019-04-21T06:57:10.054Z,9.93
2019-04-21T06:59:32.576Z,9.67
2019-04-21T07:02:28.654Z,9.97
2019-04-21T07:07:05.107Z,9.90
2019-04-21T07:09:37.869Z,9.83
2019-04-21T07:12:07.470Z,9.77
2019-04-21T07:19:48.369Z,10.17
2019-04-21T07:22:11.088Z,9.87
2019-04-21T07:25:00.203Z,9.33
2019-04-21T07:27:10.257Z,9.70
2019-04-21T07:29:47.543Z,10.00
2019-04-21T07:32:11.810Z,10.30
2019-04-21T07:34:38.622Z,9.30
2019-04-21T07:37:05.982Z,9.67
2019-04-21T07:39:32.629Z,9.37
2019-04-21T07:42:04.876Z,9.20
2019-04-21T07:44:36.253Z,8.83
2019-04-21T07:47:11.832Z,9.37
2019-04-21T07:49:57.483Z,9.13
2019-04-21T07:52:55.131Z,9.77
2019-04-21T07:57:31.388Z,10.33
2019-04-21T08:00:16.196Z,8.80
2019-04-21T08:02:38.627Z,9.30
2019-04-21T08:05:23.891Z,9.00
2019-04-21T08:07:41.675Z,8.80
2019-04-21T08:10:03.204Z,9.00
2019-04-21T08:12:28.990Z,8.23
2019-04-21T08:15:09.665Z,9.03
2019-04-21T08:17:36.566Z,8.70
2019-04-21T08:20:01.021Z,8.93
2019-04-21T08:22:32.106Z,8.47
2019-04-21T08:25:05.728Z,8.70
2019-04-21T08:27:35.157Z,8.10
2019-04-21T08:30:09.562Z,8.20
2019-04-21T08:32:49.538Z,9.03
2019-04-21T08:35:20.862Z,8.50
2019-04-21T08:37:32.843Z,8.78
2019-04-21T08:42:34.756Z,7.70
2019-04-21T08:45:07.900Z,8.15
2019-04-21T08:47:33.643Z,8.73
2019-04-21T08:50:00.688Z,8.25
2019-04-21T08:55:15.235Z,7.62
2019-04-21T08:57:53.792Z,7.97
2019-04-21T09:03:02.468Z,8.13
2019-04-21T09:05:23.387Z,7.12
2019-04-21T09:08:00.104Z,8.00
2019-04-21T09:10:29.042Z,7.62
2019-04-21T09:12:52.067Z,7.10
2019-04-21T09:15:25.247Z,7.47
2019-04-21T09:17:48.960Z,7.10
2019-04-21T09:20:32.827Z,7.33
2019-04-21T09:23:00.782Z,7.20
2019-04-21T09:25:37.301Z,7.72
2019-04-21T09:28:00.647Z,7.42
2019-04-21T09:30:10.896Z,7.47
2019-04-21T09:32:40.376Z,7.08
2019-04-21T09:35:12.461Z,6.83
2019-04-21T09:37:47.619Z,7.42
2019-04-21T09:40:09.028Z,7.10
2019-04-21T09:42:44.304Z,7.00
2019-04-21T09:45:10.031Z,6.62
2019-04-21T09:47:45.034Z,6.62
2019-04-21T09:50:09.585Z,6.70
2019-04-21T09:52:45.129Z,6.47
2019-04-21T09:55:14.346Z,6.35
2019-04-21T09:57:46.141Z,6.17
2019-04-21T10:00:15.164Z,6.45
2019-04-21T10:02:49.794Z,6.83
2019-04-21T10:05:09.942Z,6.67
2019-04-21T10:07:41.964Z,6.85
2019-04-21T10:10:08.771Z,6.53
2019-04-21T10:12:37.411Z,6.72
2019-04-21T10:15:06.741Z,7.05
2019-04-21T10:17:39.518Z,6.20
2019-04-21T10:20:09.535Z,6.47
2019-04-21T10:22:39.210Z,6.05
2019-04-21T10:25:10.471Z,6.25
2019-04-21T10:27:39.281Z,6.42
2019-04-21T10:30:09.980Z,5.60
2019-04-21T10:32:38.684Z,6.20
2019-04-21T10:35:08.655Z,6.08
2019-04-21T10:37:47.415Z,5.95
2019-04-21T10:40:09.559Z,6.67
2019-04-21T10:42:38.250Z,6.30
2019-04-21T10:45:07.478Z,6.50
2019-04-21T10:47:36.874Z,6.67
2019-04-21T10:50:08.743Z,6.70
2019-04-21T10:52:55.210Z,6.45
2019-04-21T10:55:41.790Z,6.15
2019-04-21T10:58:06.494Z,5.30
2019-04-21T11:00:36.353Z,5.42
2019-04-21T11:03:22.819Z,5.67
2019-04-21T11:05:52.712Z,6.12
2019-04-21T11:08:25.532Z,5.95
2019-04-21T11:10:51.958Z,5.10
2019-04-21T11:13:20.800Z,5.33
2019-04-21T11:15:49.315Z,5.87
2019-04-21T11:18:17.775Z,5.97
2019-04-21T11:20:46.927Z,5.55
2019-04-21T11:23:17.270Z,5.03
2019-04-21T11:25:46.205Z,5.70
2019-04-21T11:28:14.790Z,5.10
2019-04-21T11:30:44.523Z,5.50
2019-04-21T11:33:15.363Z,5.55
2019-04-21T11:35:43.681Z,4.90
2019-04-21T11:38:18.955Z,4.20
2019-04-21T11:40:43.843Z,4.22
2019-04-21T11:43:12.114Z,4.65
2019-04-21T11:45:40.642Z,4.80
2019-04-21T11:48:12.323Z,4.83
2019-04-21T11:50:41.317Z,4.53
2019-04-21T11:53:10.616Z,5.20
2019-04-21T11:55:42.959Z,5.07
2019-04-21T11:58:09.971Z,5.07
2019-04-21T12:00:38.375Z,5.27
2019-04-21T12:03:06.551Z,5.57
2019-04-21T12:05:35.224Z,4.90
2019-04-21T12:08:04.030Z,5.13
2019-04-21T12:10:33.377Z,4.97
2019-04-21T12:13:04.232Z,4.80
2019-04-21T12:15:31.569Z,4.80
2019-04-21T12:17:59.769Z,4.97
2019-04-21T12:20:28.600Z,5.57
2019-04-21T12:22:57.038Z,4.70
2019-04-21T12:25:27.258Z,5.20
2019-04-21T12:27:56.103Z,5.03
2019-04-21T12:30:24.814Z,5.30
2019-04-21T12:33:00.633Z,5.00
2019-04-21T12:35:29.795Z,5.10
2019-04-21T12:37:58.555Z,5.60
2019-04-21T12:40:28.348Z,5.20
2019-04-21T12:42:56.922Z,5.37
2019-04-21T12:45:26.073Z,5.43
2019-04-21T12:47:55.528Z,5.70
2019-04-21T12:50:24.018Z,5.20
2019-04-21T12:52:53.349Z,5.27
2019-04-21T12:55:26.162Z,5.70
2019-04-21T12:57:53.108Z,5.17
2019-04-21T13:00:22.804Z,5.30
2019-04-21T13:02:51.986Z,4.90
2019-04-21T13:05:20.302Z,5.07
2019-04-21T13:07:49.202Z,5.20
2019-04-21T13:10:20.186Z,5.40
2019-04-21T13:12:48.565Z,5.17
2019-04-21T13:15:17.840Z,5.40
2019-04-21T13:17:47.359Z,4.50
2019-04-21T13:20:17.052Z,5.20
2019-04-21T13:22:46.101Z,4.97
2019-04-21T13:25:15.939Z,5.13
2019-04-21T13:27:45.143Z,4.90
2019-04-21T13:30:15.450Z,4.70
2019-04-21T13:32:45.105Z,4.70
2019-04-21T13:35:15.054Z,4.77
2019-04-21T13:37:43.668Z,4.87
2019-04-21T13:40:51.737Z,4.73
2019-04-21T13:43:04.068Z,4.83
2019-04-21T13:45:32.307Z,4.40
2019-04-21T13:48:00.975Z,4.80
2019-04-21T13:50:29.360Z,5.00
2019-04-21T13:52:58.679Z,4.85
2019-04-21T13:55:27.871Z,4.95
2019-04-21T13:57:56.760Z,5.25
2019-04-21T14:00:25.190Z,4.70
2019-04-21T14:02:54.583Z,4.73
2019-04-21T14:05:24.432Z,4.57
2019-04-21T14:07:52.755Z,4.50
2019-04-21T14:10:21.875Z,4.35
2019-04-21T14:12:50.673Z,4.58
2019-04-21T14:15:20.245Z,4.40
2019-04-21T14:17:48.981Z,4.60
2019-04-21T14:20:17.630Z,5.27
2019-04-21T14:22:46.455Z,4.50
2019-04-21T14:25:15.925Z,4.10
2019-04-21T14:27:46.955Z,4.40
2019-04-21T14:30:14.629Z,4.78
2019-04-21T14:32:44.261Z,4.33
2019-04-21T14:35:14.686Z,4.87
2019-04-21T14:37:44.519Z,4.10
2019-04-21T14:40:20.123Z,4.45
2019-04-21T14:42:44.416Z,4.25
2019-04-21T14:45:14.557Z,4.33
2019-04-21T14:47:52.945Z,4.70
2019-04-21T14:50:22.310Z,4.83
2019-04-21T14:53:11.762Z,4.10
2019-04-21T14:55:41.778Z,4.40
2019-04-21T14:58:10.311Z,4.70
2019-04-21T15:00:53.430Z,4.60
2019-04-21T15:03:21.871Z,4.67
2019-04-21T15:05:51.444Z,4.92
2019-04-21T15:08:19.836Z,4.35
2019-04-21T15:10:49.341Z,4.10
2019-04-21T15:13:17.657Z,4.53
2019-04-21T15:15:45.875Z,4.55
2019-04-21T15:18:14.623Z,4.58
2019-04-21T15:20:45.645Z,4.58
2019-04-21T15:23:12.830Z,4.87
2019-04-21T15:25:41.930Z,4.30
2019-04-21T15:28:11.623Z,4.33
2019-04-21T15:30:40.795Z,4.30
2019-04-21T15:33:10.570Z,5.05
2019-04-21T15:35:39.067Z,5.37
2019-04-21T15:38:09.739Z,5.90
2019-04-21T15:40:46.744Z,4.65
2019-04-21T15:43:08.490Z,5.00
2019-04-21T15:45:37.158Z,5.20
2019-04-21T15:48:06.025Z,4.25
2019-04-21T15:50:35.587Z,4.40
2019-04-21T15:53:05.679Z,4.93
2019-04-21T15:55:44.871Z,4.83
2019-04-21T15:58:14.706Z,4.40
2019-04-21T16:00:44.742Z,5.87
2019-04-21T16:03:13.025Z,5.20
2019-04-21T16:05:42.596Z,4.10
2019-04-21T16:08:12.079Z,4.50
2019-04-21T16:10:48.283Z,4.30
2019-04-21T16:13:11.689Z,4.23
2019-04-21T16:15:40.913Z,3.73
2019-04-21T16:18:10.059Z,4.50
2019-04-21T16:20:39.753Z,4.17
2019-04-21T16:23:08.569Z,4.07
2019-04-21T16:25:37.028Z,4.13
2019-04-21T16:28:06.283Z,4.03
2019-04-21T16:30:34.458Z,4.00
2019-04-21T16:33:03.912Z,4.23
2019-04-21T16:35:33.705Z,3.80
2019-04-21T16:38:02.827Z,3.83
2019-04-21T16:40:43.280Z,3.50
2019-04-21T16:43:02.129Z,3.57
2019-04-21T16:45:30.747Z,3.60
2019-04-21T16:47:59.135Z,3.50
2019-04-21T16:50:27.956Z,3.47
2019-04-21T16:53:03.897Z,3.73
2019-04-21T16:55:37.161Z,3.37
2019-04-21T16:58:12.673Z,3.90
2019-04-21T17:00:46.035Z,3.37
2019-04-21T17:03:08.585Z,3.40
2019-04-21T17:05:38.095Z,3.20
2019-04-21T17:08:07.988Z,3.30
2019-04-21T17:10:36.659Z,3.50
2019-04-21T17:13:06.120Z,3.60
2019-04-21T17:15:51.497Z,3.37
2019-04-21T17:18:23.100Z,3.27
2019-04-21T17:20:44.983Z,3.20
2019-04-21T17:23:04.797Z,2.90
2019-04-21T17:25:34.047Z,3.50
2019-04-21T17:28:03.578Z,3.20
2019-04-21T17:30:32.593Z,3.43
2019-04-21T17:33:01.709Z,3.20
2019-04-21T17:35:31.145Z,3.13
2019-04-21T17:38:00.253Z,3.20
2019-04-21T17:40:30.066Z,3.33
2019-04-21T17:43:02.016Z,3.00
2019-04-21T17:45:28.970Z,3.03
2019-04-21T17:48:03.240Z,3.20
2019-04-21T17:50:43.781Z,3.10
2019-04-21T17:53:30.450Z,3.37
2019-04-21T17:56:16.404Z,3.43
2019-04-21T17:58:43.335Z,3.40
2019-04-21T18:06:05.048Z,3.50
2019-04-21T18:08:46.506Z,3.70
2019-04-21T18:11:03.608Z,3.40
2019-04-21T18:13:26.600Z,3.50
2019-04-21T18:16:08.226Z,3.20
2019-04-21T18:18:23.545Z,3.20
2019-04-21T18:20:55.003Z,3.50
2019-04-21T18:23:40.859Z,3.40
2019-04-21T18:26:02.943Z,4.00
2019-04-21T18:28:28.467Z,3.43
2019-04-21T18:30:58.438Z,3.47
2019-04-21T18:33:31.747Z,3.83
2019-04-21T18:36:00.265Z,3.83
2019-04-21T18:38:54.830Z,3.70
2019-04-21T18:41:03.838Z,3.47
2019-04-21T18:44:02.251Z,3.23
2019-04-21T18:46:34.124Z,3.90
2019-04-21T18:48:49.714Z,3.30
2019-04-21T18:51:20.161Z,3.60
2019-04-21T18:54:12.542Z,3.43
2019-04-21T18:56:20.902Z,4.03
2019-04-21T18:58:50.805Z,3.67
2019-04-21T19:01:25.960Z,3.77
2019-04-21T19:03:53.804Z,3.90
2019-04-21T19:06:32.171Z,4.40
2019-04-21T19:09:24.608Z,4.40
2019-04-21T19:11:34.706Z,4.67
2019-04-21T19:14:28.582Z,4.43
2019-04-21T19:16:49.682Z,4.10
2019-04-21T19:21:40.277Z,4.33
2019-04-21T19:26:54.396Z,3.90
2019-04-21T19:29:22.796Z,4.10
2019-04-21T19:31:46.616Z,4.43
2019-04-21T19:34:06.151Z,4.00
2019-04-21T19:36:29.141Z,4.23
2019-04-21T19:39:06.847Z,4.33
2019-04-21T19:41:41.173Z,4.90
2019-04-21T19:44:14.226Z,5.70
2019-04-21T19:46:40.865Z,6.00
2019-04-21T19:49:22.338Z,5.57
2019-04-21T19:51:41.127Z,5.97
2019-04-21T19:54:09.361Z,5.80
2019-04-21T19:56:26.382Z,5.10
2019-04-21T19:58:55.006Z,6.27
2019-04-21T20:01:23.584Z,5.63
2019-04-21T20:03:55.799Z,5.97
2019-04-21T20:06:44.105Z,6.30
2019-04-21T20:09:08.338Z,6.27
2019-04-21T20:11:38.726Z,5.63
2019-04-21T20:14:37.635Z,6.23
2019-04-21T20:16:41.310Z,5.67
2019-04-21T20:18:57.270Z,6.93
2019-04-21T20:21:22.816Z,6.30
2019-04-21T20:23:51.737Z,6.47
2019-04-21T20:26:23.132Z,6.37
2019-04-21T20:28:59.251Z,6.63
2019-04-21T20:31:36.484Z,6.40
2019-04-21T20:34:12.623Z,6.20
2019-04-21T20:36:41.876Z,6.43
2019-04-21T20:38:59.272Z,6.03
2019-04-21T20:41:32.218Z,6.70
2019-04-21T20:44:06.114Z,6.23
2019-04-21T20:46:36.604Z,6.43
2019-04-21T20:49:04.638Z,6.43
2019-04-21T20:51:40.434Z,7.17
2019-04-21T20:54:02.914Z,6.87
2019-04-21T20:56:37.029Z,6.97
2019-04-21T20:59:08.058Z,7.20
2019-04-21T21:01:34.754Z,6.57
2019-04-21T21:04:01.706Z,7.23
2019-04-21T21:06:35.243Z,7.27
2019-04-21T21:09:06.114Z,7.13
2019-04-21T21:11:45.218Z,7.33
2019-04-21T21:14:07.182Z,7.23
2019-04-21T21:16:45.018Z,7.13
2019-04-21T21:21:34.173Z,6.93
2019-04-21T21:24:06.826Z,6.90
2019-04-21T21:26:42.620Z,5.97
2019-04-21T21:29:01.935Z,5.80
2019-04-21T21:31:37.360Z,5.60
2019-04-21T21:34:09.555Z,5.57
2019-04-21T21:36:36.729Z,5.97
2019-04-21T21:39:06.028Z,6.17
2019-04-21T21:41:28.864Z,6.17
2019-04-21T21:43:58.144Z,5.90
2019-04-21T21:46:36.787Z,6.20
2019-04-21T21:49:01.294Z,6.57
2019-04-21T21:51:33.165Z,5.83
2019-04-21T21:53:48.629Z,6.10
2019-04-21T21:56:16.821Z,5.87
2019-04-21T21:58:47.895Z,6.17
2019-04-21T22:01:20.638Z,5.87
2019-04-21T22:03:47.248Z,6.13
2019-04-21T22:06:19.638Z,6.07
2019-04-21T22:08:46.138Z,5.97
2019-04-21T22:11:15.852Z,6.10
2019-04-21T22:13:54.584Z,5.70
2019-04-21T22:16:17.406Z,6.13
2019-04-21T22:19:04.544Z,5.83
2019-04-21T22:21:35.116Z,5.70
2019-04-21T22:23:54.974Z,5.87
2019-04-21T22:26:13.831Z,5.63
2019-04-21T22:28:43.460Z,5.70
2019-04-21T22:31:18.424Z,6.13
2019-04-21T22:33:49.422Z,5.43
2019-04-21T22:36:26.480Z,5.73
2019-04-21T22:38:59.896Z,5.03
2019-04-21T22:41:25.789Z,5.83
2019-04-21T22:43:44.550Z,5.83
2019-04-21T22:46:13.622Z,6.13
2019-04-21T22:48:45.349Z,5.73
2019-04-21T22:51:20.428Z,6.00
2019-04-21T22:53:46.485Z,5.67
2019-04-21T22:56:18.537Z,6.17
2019-04-21T22:58:44.018Z,5.90
2019-04-21T23:01:11.192Z,6.03
2019-04-21T23:03:46.753Z,6.00
2019-04-21T23:06:17.475Z,6.20
2019-04-21T23:08:42.413Z,6.03
2019-04-21T23:11:12.350Z,6.30
2019-04-21T23:13:40.293Z,6.30
2019-04-21T23:16:09.861Z,5.93
2019-04-21T23:18:51.643Z,5.73
2019-04-21T23:21:19.524Z,5.73
2019-04-21T23:23:57.203Z,5.83
2019-04-21T23:26:26.131Z,6.00
2019-04-21T23:28:59.901Z,6.10
2019-04-21T23:31:30.810Z,6.03
2019-04-21T23:33:38.406Z,5.60
2019-04-21T23:36:12.956Z,6.00
2019-04-21T23:38:43.519Z,6.27
2019-04-21T23:41:10.633Z,6.17
2019-04-21T23:43:37.187Z,6.80
2019-04-21T23:46:11.941Z,5.97
2019-04-21T23:48:55.994Z,6.20
2019-04-21T23:51:15.982Z,5.93
2019-04-21T23:53:37.489Z,6.00
2019-04-21T23:56:05.767Z,5.87
2019-04-21T23:58:36.288Z,5.80
